PWSweather.com
Personal Weather Stations
Station Observations
KPAMECHA5
Mechanicsburg, PA 17050

Mechanicsburg, PA 17050

Lat: 40.21531, Lon: -77.0395

Elevation: 430

Station Type: Davis 6322

http://MechanicsburgWeather.com

Latest ConditionsUpdated 6:30:06 AM EDT Thursday, Jul 24, 2014
Currently Today's Max Today's Min Today's Average
Temperature 69.0°F20.6°C 76.2°F24.6°C 69.0°F20.6°C 72.9°F22.7°C
Dew Point 61.9°F16.6°C 69.8°F21.0°C 61.5°F16.4°C 65.1°F18.4°C
Winds 0.3 mph NNE0.5 kmh NNE 3.9 mph N6.3 kmh N - 1.2 mph 1.9 kmh
Wind Gusts 4.0 mph6.4 kmh 7.0 mph11.3 kmh - -
Humidity 78% 82% 71% 77%
Pressure 29.83 in1010.2 mb 29.84 in1010.5 mb 29.79 in1008.8 mb -
Hour Temp Dew Point Humidity Winds Wind Gusts Pressure Precip Precip Rate Daily Precip Total
06:30 AM 69.0°F20.6°C 61.9°F16.6°C 78% 0.3 mph NNE0.5 kmh NNE 4.0 mph6.4 kmh 29.83 in1010.2 mb 0.00 in0.0 mm 0.00 in/hr0.0 mm/hr 0.00 in0.0 mm
06:20 AM 69.0°F20.6°C 61.5°F16.4°C 77% 1.4 mph N2.3 kmh N 6.0 mph9.7 kmh 29.83 in1010.2 mb 0.00 in0.0 mm 0.00 in/hr0.0 mm/hr 0.00 in0.0 mm
06:10 AM 69.2°F20.7°C 61.7°F16.5°C 77% 0.4 mph N0.6 kmh N 2.0 mph3.2 kmh 29.83 in1010.2 mb 0.00 in0.0 mm 0.00 in/hr0.0 mm/hr 0.00 in0.0 mm
06:00 AM 69.4°F20.8°C 61.9°F16.6°C 77% 1.4 mph NNE2.3 kmh NNE 4.0 mph6.4 kmh 29.83 in1010.2 mb 0.00 in0.0 mm 0.00 in/hr0.0 mm/hr 0.00 in0.0 mm
05:50 AM 69.7°F20.9°C 61.8°F16.6°C 76% 0.1 mph NE0.2 kmh NE -- 29.84 in1010.5 mb 0.00 in0.0 mm 0.00 in/hr0.0 mm/hr 0.00 in0.0 mm
05:40 AM 69.9°F21.1°C 62.0°F16.7°C 76% 1.6 mph N2.6 kmh N 5.0 mph8.0 kmh 29.84 in1010.5 mb 0.00 in0.0 mm 0.00 in/hr0.0 mm/hr 0.00 in0.0 mm
05:30 AM 70.1°F21.2°C 62.2°F16.8°C 76% 1.9 mph NNE3.1 kmh NNE 5.0 mph8.0 kmh 29.84 in1010.5 mb 0.00 in0.0 mm 0.00 in/hr0.0 mm/hr 0.00 in0.0 mm
05:20 AM 70.2°F21.2°C 61.9°F16.6°C 75% 0.7 mph NNE1.1 kmh NNE 1.0 mph1.6 kmh 29.83 in1010.2 mb 0.00 in0.0 mm 0.00 in/hr0.0 mm/hr 0.00 in0.0 mm
05:10 AM 70.4°F21.3°C 61.7°F16.5°C 74% 0.8 mph NNW1.3 kmh NNW 6.0 mph9.7 kmh 29.83 in1010.2 mb 0.00 in0.0 mm 0.00 in/hr0.0 mm/hr 0.00 in0.0 mm
05:00 AM 70.6°F21.4°C 61.9°F16.6°C 74% 2.3 mph N3.7 kmh N 5.0 mph8.0 kmh 29.83 in1010.2 mb 0.00 in0.0 mm 0.00 in/hr0.0 mm/hr 0.00 in0.0 mm
04:50 AM 70.8°F21.6°C 61.7°F16.5°C 73% 2.2 mph NNE3.5 kmh NNE 6.0 mph9.7 kmh 29.83 in1010.2 mb 0.00 in0.0 mm 0.00 in/hr0.0 mm/hr 0.00 in0.0 mm
04:40 AM 71.0°F21.7°C 61.9°F16.6°C 73% 1.0 mph NNE1.6 kmh NNE 3.0 mph4.8 kmh 29.82 in1009.8 mb 0.00 in0.0 mm 0.00 in/hr0.0 mm/hr 0.00 in0.0 mm
04:30 AM 71.3°F21.8°C 61.8°F16.6°C 72% 0.2 mph N0.3 kmh N 1.0 mph1.6 kmh 29.82 in1009.8 mb 0.00 in0.0 mm 0.00 in/hr0.0 mm/hr 0.00 in0.0 mm
04:20 AM 71.5°F21.9°C 62.0°F16.7°C 72% 1.0 mph N1.6 kmh N 4.0 mph6.4 kmh 29.82 in1009.8 mb 0.00 in0.0 mm 0.00 in/hr0.0 mm/hr 0.00 in0.0 mm
04:10 AM 71.7°F22.1°C 61.8°F16.6°C 71% 3.9 mph N6.3 kmh N 7.0 mph11.3 kmh 29.81 in1009.5 mb 0.00 in0.0 mm 0.00 in/hr0.0 mm/hr 0.00 in0.0 mm
04:00 AM 72.0°F22.2°C 62.0°F16.7°C 71% 2.3 mph NW3.7 kmh NW 4.0 mph6.4 kmh 29.82 in1009.8 mb 0.00 in0.0 mm 0.00 in/hr0.0 mm/hr 0.00 in0.0 mm
03:50 AM 72.2°F22.3°C 62.7°F17.1°C 72% 2.2 mph N3.5 kmh N 3.0 mph4.8 kmh 29.82 in1009.8 mb 0.00 in0.0 mm 0.00 in/hr0.0 mm/hr 0.00 in0.0 mm
03:40 AM 72.5°F22.5°C 62.6°F17.0°C 71% 2.9 mph N4.7 kmh N 5.0 mph8.0 kmh 29.81 in1009.5 mb 0.00 in0.0 mm 0.00 in/hr0.0 mm/hr 0.00 in0.0 mm
03:30 AM 72.7°F22.6°C 62.8°F17.1°C 71% 3.0 mph N4.8 kmh N 6.0 mph9.7 kmh 29.81 in1009.5 mb 0.00 in0.0 mm 0.00 in/hr0.0 mm/hr 0.00 in0.0 mm
03:20 AM 73.0°F22.8°C 64.6°F18.1°C 75% 2.7 mph N4.3 kmh N 6.0 mph9.7 kmh 29.80 in1009.1 mb 0.00 in0.0 mm 0.00 in/hr0.0 mm/hr 0.00 in0.0 mm
03:10 AM 73.2°F22.9°C 65.6°F18.7°C 77% 0.8 mph NNE1.3 kmh NNE 4.0 mph6.4 kmh 29.81 in1009.5 mb 0.00 in0.0 mm 0.00 in/hr0.0 mm/hr 0.00 in0.0 mm
03:00 AM 73.4°F23.0°C 65.8°F18.8°C 77% 1.1 mph N1.8 kmh N 5.0 mph8.0 kmh 29.80 in1009.1 mb 0.00 in0.0 mm 0.00 in/hr0.0 mm/hr 0.00 in0.0 mm
02:50 AM 73.7°F23.2°C 66.4°F19.1°C 78% 2.9 mph N4.7 kmh N 7.0 mph11.3 kmh 29.81 in1009.5 mb 0.00 in0.0 mm 0.00 in/hr0.0 mm/hr 0.00 in0.0 mm
02:40 AM 73.9°F23.3°C 66.6°F19.2°C 78% 0.8 mph NNE1.3 kmh NNE 4.0 mph6.4 kmh 29.81 in1009.5 mb 0.00 in0.0 mm 0.00 in/hr0.0 mm/hr 0.00 in0.0 mm
02:30 AM 74.1°F23.4°C 66.8°F19.3°C 78% 0.2 mph N0.3 kmh N 1.0 mph1.6 kmh 29.82 in1009.8 mb 0.00 in0.0 mm 0.00 in/hr0.0 mm/hr 0.00 in0.0 mm
02:20 AM 74.3°F23.5°C 67.0°F19.4°C 78% 2.1 mph NE3.4 kmh NE 4.0 mph6.4 kmh 29.81 in1009.5 mb 0.00 in0.0 mm 0.00 in/hr0.0 mm/hr 0.00 in0.0 mm
02:10 AM 74.4°F23.6°C 67.1°F19.5°C 78% 0.6 mph NE1.0 kmh NE 1.0 mph1.6 kmh 29.81 in1009.5 mb 0.00 in0.0 mm 0.00 in/hr0.0 mm/hr 0.00 in0.0 mm
02:00 AM 74.6°F23.7°C 67.3°F19.6°C 78% 0.8 mph NE1.3 kmh NE 2.0 mph3.2 kmh 29.81 in1009.5 mb 0.00 in0.0 mm 0.00 in/hr0.0 mm/hr 0.00 in0.0 mm
01:50 AM 74.7°F23.7°C 67.4°F19.7°C 78% 1.5 mph N2.4 kmh N 4.0 mph6.4 kmh 29.80 in1009.1 mb 0.00 in0.0 mm 0.00 in/hr0.0 mm/hr 0.00 in0.0 mm
01:40 AM 74.9°F23.8°C 67.6°F19.8°C 78% 0.3 mph NNE0.5 kmh NNE 3.0 mph4.8 kmh 29.80 in1009.1 mb 0.00 in0.0 mm 0.00 in/hr0.0 mm/hr 0.00 in0.0 mm
01:30 AM 75.3°F24.1°C 68.7°F20.4°C 80% 0.4 mph NNE0.6 kmh NNE 2.0 mph3.2 kmh 29.80 in1009.1 mb 0.00 in0.0 mm 0.00 in/hr0.0 mm/hr 0.00 in0.0 mm
01:20 AM 75.5°F24.2°C 68.9°F20.5°C 80% 0.3 mph NNE0.5 kmh NNE 6.0 mph9.7 kmh 29.81 in1009.5 mb 0.00 in0.0 mm 0.00 in/hr0.0 mm/hr 0.00 in0.0 mm
01:10 AM 75.8°F24.3°C 69.2°F20.7°C 80% 0.1 mph NNE0.2 kmh NNE -- 29.81 in1009.5 mb 0.00 in0.0 mm 0.00 in/hr0.0 mm/hr 0.00 in0.0 mm
01:00 AM 76.0°F24.4°C 69.4°F20.8°C 80% 0.6 mph N1.0 kmh N 5.0 mph8.0 kmh 29.80 in1009.1 mb 0.00 in0.0 mm 0.00 in/hr0.0 mm/hr 0.00 in0.0 mm
12:50 AM 76.1°F24.5°C 69.5°F20.8°C 80% 0.1 mph NNE0.2 kmh NNE 1.0 mph1.6 kmh 29.81 in1009.5 mb 0.00 in0.0 mm 0.00 in/hr0.0 mm/hr 0.00 in0.0 mm
12:40 AM 76.2°F24.6°C 69.6°F20.9°C 80% 0.9 mph NNW1.4 kmh NNW 1.0 mph1.6 kmh 29.81 in1009.5 mb 0.00 in0.0 mm 0.00 in/hr0.0 mm/hr 0.00 in0.0 mm
12:30 AM 76.1°F24.5°C 69.5°F20.8°C 80% 0.3 mph NW0.5 kmh NW -- 29.81 in1009.5 mb 0.00 in0.0 mm 0.00 in/hr0.0 mm/hr 0.00 in0.0 mm
12:20 AM 75.9°F24.4°C 69.6°F20.9°C 81% 0.5 mph NW0.8 kmh NW 4.0 mph6.4 kmh 29.80 in1009.1 mb 0.00 in0.0 mm 0.00 in/hr0.0 mm/hr 0.00 in0.0 mm
12:10 AM 75.6°F24.2°C 69.4°F20.8°C 81% 2.1 mph NW3.4 kmh NW 4.0 mph6.4 kmh 29.80 in1009.1 mb 0.00 in0.0 mm 0.00 in/hr0.0 mm/hr 0.00 in0.0 mm
12:00 AM 75.7°F24.3°C 69.8°F21.0°C 82% 0.1 mph NW0.2 kmh NW 1.0 mph1.6 kmh 29.79 in1008.8 mb 0.00 in0.0 mm 0.00 in/hr0.0 mm/hr 0.00 in0.0 mm